createdAt,value
2022-11-09T00:01:30.254Z,12.90
2022-11-09T00:04:00.234Z,12.90
2022-11-09T00:06:29.948Z,12.90
2022-11-09T00:09:04.111Z,12.80
2022-11-09T00:11:38.235Z,12.80
2022-11-09T00:29:00.123Z,12.10
2022-11-09T00:33:58.835Z,12.00
2022-11-09T00:36:29.138Z,12.00
2022-11-09T00:38:59.706Z,12.10
2022-11-09T00:41:28.854Z,12.00
2022-11-09T00:48:56.831Z,12.00
2022-11-09T00:51:25.982Z,12.00
2022-11-09T00:53:55.406Z,12.00
2022-11-09T00:58:55.784Z,12.00
2022-11-09T01:01:26.042Z,12.00
2022-11-09T01:06:25.020Z,12.00
2022-11-09T01:11:23.831Z,12.00
2022-11-09T01:13:54.880Z,12.10
2022-11-09T01:16:25.627Z,12.10
2022-11-09T01:18:55.999Z,12.10
2022-11-09T01:21:27.461Z,12.10
2022-11-09T01:23:56.508Z,12.20
2022-11-09T01:31:23.705Z,12.30
2022-11-09T01:33:53.350Z,12.30
2022-11-09T01:36:24.848Z,12.40
2022-11-09T01:41:24.720Z,12.40
2022-11-09T01:44:12.596Z,12.40
2022-11-09T01:46:53.003Z,12.50
2022-11-09T01:49:40.814Z,12.40
2022-11-09T01:52:14.215Z,12.50
2022-11-09T01:54:49.059Z,12.50
2022-11-09T01:57:23.059Z,12.50
2022-11-09T02:00:00.608Z,12.50
2022-11-09T02:05:02.768Z,12.50
2022-11-09T02:10:08.097Z,12.60
2022-11-09T02:12:37.551Z,12.60
2022-11-09T02:15:11.433Z,12.60
2022-11-09T02:17:40.912Z,12.50
2022-11-09T02:20:13.668Z,12.60
2022-11-09T02:25:13.556Z,12.50
2022-11-09T02:30:13.541Z,12.50
2022-11-09T02:32:41.894Z,12.50
2022-11-09T02:37:45.695Z,12.50
2022-11-09T02:40:21.687Z,12.60
2022-11-09T03:05:18.300Z,12.10
2022-11-09T03:10:16.238Z,12.10
2022-11-09T03:12:44.676Z,12.00
2022-11-09T03:20:18.591Z,12.00
2022-11-09T03:22:46.886Z,12.00
2022-11-09T03:35:20.094Z,12.00
2022-11-09T03:43:35.081Z,12.00
2022-11-09T03:48:31.932Z,12.00
2022-11-09T03:51:01.656Z,12.00
2022-11-09T03:53:29.914Z,12.00
2022-11-09T03:55:58.970Z,11.90
2022-11-09T04:00:55.894Z,11.90
2022-11-09T04:03:24.161Z,11.90
2022-11-09T04:05:52.474Z,11.90
2022-11-09T04:08:22.111Z,11.90
2022-11-09T04:10:50.431Z,11.90
2022-11-09T04:13:19.111Z,11.90
2022-11-09T04:15:47.643Z,11.80
2022-11-09T04:18:17.839Z,11.80
2022-11-09T04:23:16.094Z,11.80
2022-11-09T04:28:20.091Z,11.80
2022-11-09T04:38:16.066Z,11.80
2022-11-09T04:40:45.760Z,11.80
2022-11-09T04:43:15.983Z,11.70
2022-11-09T04:45:44.574Z,11.70
2022-11-09T04:48:13.210Z,11.70
2022-11-09T04:53:12.669Z,11.70
2022-11-09T05:00:40.934Z,11.70
2022-11-09T05:05:44.050Z,11.80
2022-11-09T05:08:15.635Z,11.70
2022-11-09T05:13:14.959Z,11.80
2022-11-09T05:23:26.548Z,11.80
2022-11-09T05:25:54.871Z,11.80
2022-11-09T05:28:24.495Z,11.80
2022-11-09T05:30:52.755Z,11.90
2022-11-09T05:40:49.478Z,11.90
2022-11-09T05:43:17.933Z,11.90
2022-11-09T05:45:48.099Z,11.90
2022-11-09T05:48:18.071Z,11.90
2022-11-09T05:50:46.616Z,11.90
2022-11-09T05:53:33.732Z,11.90
2022-11-09T05:56:07.535Z,11.90
2022-11-09T05:58:38.652Z,11.90
2022-11-09T06:01:11.302Z,11.80
2022-11-09T06:03:44.415Z,11.80
2022-11-09T06:06:15.684Z,11.80
2022-11-09T06:11:19.872Z,11.80
2022-11-09T06:16:22.297Z,11.90
2022-11-09T06:21:19.589Z,11.90
2022-11-09T06:23:48.165Z,11.90
2022-11-09T06:28:45.856Z,11.90
2022-11-09T06:31:16.841Z,11.90
2022-11-09T06:33:46.687Z,11.80
2022-11-09T06:38:43.948Z,11.90
2022-11-09T06:51:11.237Z,12.00
2022-11-09T06:56:10.188Z,11.90
2022-11-09T06:58:38.823Z,12.00
2022-11-09T07:01:11.242Z,12.00
2022-11-09T07:03:40.521Z,12.00
2022-11-09T07:06:12.518Z,12.00
2022-11-09T07:11:13.334Z,12.00
2022-11-09T07:13:41.709Z,12.00
2022-11-09T07:16:11.954Z,12.00
2022-11-09T07:18:40.310Z,12.00
2022-11-09T07:21:13.980Z,12.00
2022-11-09T07:23:43.389Z,12.00
2022-11-09T07:33:37.968Z,12.10
2022-11-09T07:36:07.787Z,12.10
2022-11-09T07:38:37.388Z,12.10
2022-11-09T07:41:05.914Z,12.10
2022-11-09T07:43:34.149Z,9.50
2022-11-09T07:46:05.924Z,12.10
2022-11-09T07:51:03.567Z,12.20
2022-11-09T07:53:32.324Z,12.20
2022-11-09T07:56:04.338Z,12.20
2022-11-09T07:58:34.241Z,12.20
2022-11-09T08:01:02.532Z,12.20
2022-11-09T08:03:30.732Z,12.30
2022-11-09T08:05:59.098Z,12.30
2022-11-09T08:08:27.337Z,12.30
2022-11-09T08:10:58.496Z,12.30
2022-11-09T08:13:28.159Z,12.30
2022-11-09T08:18:25.110Z,12.30
2022-11-09T08:20:53.361Z,12.30
2022-11-09T08:23:22.590Z,12.40
2022-11-09T08:25:51.735Z,12.40
2022-11-09T08:28:20.362Z,12.40
2022-11-09T08:30:57.588Z,12.40
2022-11-09T08:33:27.397Z,12.40
2022-11-09T08:35:56.362Z,12.40
2022-11-09T08:38:24.770Z,12.40
2022-11-09T08:40:58.776Z,12.40
2022-11-09T08:43:27.528Z,12.50
2022-11-09T08:45:57.202Z,12.50
2022-11-09T08:48:25.840Z,12.50
2022-11-09T08:50:55.816Z,12.60
2022-11-09T08:53:24.989Z,12.70
2022-11-09T08:55:53.774Z,12.70
2022-11-09T09:00:51.442Z,12.80
2022-11-09T09:03:21.084Z,12.90
2022-11-09T09:05:49.274Z,12.90
2022-11-09T09:13:22.534Z,13.00
2022-11-09T09:18:21.556Z,13.10
2022-11-09T09:20:50.423Z,13.10
2022-11-09T09:25:48.303Z,13.10
2022-11-09T09:28:16.565Z,13.20
2022-11-09T09:33:13.385Z,13.20
2022-11-09T09:35:43.033Z,13.20
2022-11-09T09:38:11.373Z,13.20
2022-11-09T09:40:49.617Z,13.20
2022-11-09T09:43:27.881Z,13.20
2022-11-09T09:45:57.026Z,13.30
2022-11-09T09:48:36.734Z,13.30
2022-11-09T09:51:14.586Z,13.30
2022-11-09T09:53:48.773Z,13.40
2022-11-09T09:56:21.845Z,13.50
2022-11-09T09:58:57.797Z,13.70
2022-11-09T10:01:36.122Z,13.80
2022-11-09T10:04:04.723Z,14.10
2022-11-09T10:06:49.490Z,14.30
2022-11-09T10:09:33.066Z,14.70
2022-11-09T10:12:12.216Z,14.90
2022-11-09T10:15:07.434Z,14.90
2022-11-09T10:17:50.227Z,15.00
2022-11-09T10:20:52.912Z,15.00
2022-11-09T10:23:44.796Z,14.90
2022-11-09T10:26:19.979Z,14.70
2022-11-09T10:31:47.899Z,14.50
2022-11-09T10:34:20.768Z,14.50
2022-11-09T10:37:04.436Z,14.50
2022-11-09T10:39:45.339Z,14.50
2022-11-09T10:45:30.475Z,15.20
2022-11-09T10:48:33.261Z,15.70
2022-11-09T10:51:40.579Z,16.20
2022-11-09T10:54:31.194Z,16.10
2022-11-09T10:57:22.905Z,15.90
2022-11-09T11:00:17.593Z,15.80
2022-11-09T11:03:16.459Z,15.80
2022-11-09T11:06:05.882Z,15.90
2022-11-09T11:09:14.519Z,16.00
2022-11-09T11:12:16.245Z,15.90
2022-11-09T11:15:04.842Z,15.90
2022-11-09T11:18:01.166Z,15.90
2022-11-09T11:20:48.726Z,15.80
2022-11-09T11:26:35.570Z,15.70
2022-11-09T11:29:38.632Z,15.60
2022-11-09T11:32:27.320Z,15.40
2022-11-09T11:35:16.605Z,15.30
2022-11-09T11:38:21.151Z,15.20
2022-11-09T11:41:31.695Z,15.20
2022-11-09T11:44:42.874Z,15.20
2022-11-09T11:47:43.024Z,15.30
2022-11-09T11:50:42.239Z,15.30
2022-11-09T11:53:48.883Z,15.30
2022-11-09T11:56:43.271Z,15.30
2022-11-09T11:59:56.896Z,15.30
2022-11-09T12:03:14.227Z,15.20
2022-11-09T12:06:44.326Z,15.20
2022-11-09T12:09:54.582Z,15.10
2022-11-09T12:12:53.701Z,15.10
2022-11-09T12:15:53.201Z,15.20
2022-11-09T12:18:56.706Z,15.10
2022-11-09T12:21:52.543Z,15.10
2022-11-09T12:24:47.762Z,15.20
2022-11-09T12:28:07.535Z,15.10
2022-11-09T12:31:10.298Z,15.10
2022-11-09T12:34:04.544Z,15.20
2022-11-09T12:36:56.655Z,15.20
2022-11-09T12:39:47.436Z,15.30
2022-11-09T12:42:44.481Z,15.20
2022-11-09T12:45:35.327Z,15.30
2022-11-09T12:48:25.748Z,15.30
2022-11-09T12:51:14.234Z,15.30
2022-11-09T12:54:03.008Z,15.30
2022-11-09T12:56:56.288Z,15.30
2022-11-09T13:00:30.225Z,15.30
2022-11-09T13:03:27.461Z,15.30
2022-11-09T13:06:20.632Z,15.40
2022-11-09T13:09:20.471Z,15.30
2022-11-09T13:12:19.416Z,15.30
2022-11-09T13:15:27.862Z,15.30
2022-11-09T13:18:27.275Z,15.30
2022-11-09T13:21:40.467Z,15.30
2022-11-09T13:24:56.397Z,15.30
2022-11-09T13:27:45.654Z,15.30
2022-11-09T13:30:43.846Z,15.30
2022-11-09T13:33:31.707Z,15.30
2022-11-09T13:36:22.390Z,15.30
2022-11-09T13:39:31.806Z,15.20
2022-11-09T13:42:34.668Z,15.90
2022-11-09T13:45:30.437Z,15.20
2022-11-09T13:48:35.118Z,15.20
2022-11-09T13:51:26.859Z,15.10
2022-11-09T13:57:10.113Z,15.20
2022-11-09T14:00:00.801Z,15.20
2022-11-09T14:02:55.896Z,15.20
2022-11-09T14:05:45.310Z,15.10
2022-11-09T14:08:40.394Z,15.10
2022-11-09T14:11:55.868Z,15.10
2022-11-09T14:15:08.765Z,15.10
2022-11-09T14:18:11.991Z,15.10
2022-11-09T14:21:14.363Z,15.10
2022-11-09T14:24:04.898Z,15.00
2022-11-09T14:27:16.806Z,15.00
2022-11-09T14:30:20.386Z,15.00
2022-11-09T14:33:23.093Z,15.00
2022-11-09T14:36:13.937Z,14.90
2022-11-09T14:39:03.524Z,14.90
2022-11-09T14:41:51.609Z,14.90
2022-11-09T14:44:43.836Z,14.90
2022-11-09T14:47:35.259Z,14.90
2022-11-09T14:50:25.955Z,14.90
2022-11-09T14:53:18.995Z,14.90
2022-11-09T14:56:09.199Z,14.90
2022-11-09T14:58:58.191Z,14.90
2022-11-09T15:01:59.895Z,14.90
2022-11-09T15:04:56.891Z,14.80
2022-11-09T15:07:48.035Z,14.80
2022-11-09T15:10:36.019Z,14.80
2022-11-09T15:13:32.626Z,14.70
2022-11-09T15:16:24.145Z,14.70
2022-11-09T15:19:31.579Z,14.70
2022-11-09T15:22:48.000Z,14.60
2022-11-09T15:25:37.793Z,14.60
2022-11-09T15:28:27.400Z,14.50
2022-11-09T15:31:18.804Z,14.60
2022-11-09T15:34:23.799Z,14.50
2022-11-09T15:37:28.240Z,14.50
2022-11-09T15:40:21.564Z,14.50
2022-11-09T15:43:08.464Z,14.50
2022-11-09T15:45:56.493Z,14.50
2022-11-09T15:48:46.346Z,14.50
2022-11-09T15:51:33.880Z,14.40
2022-11-09T15:54:22.029Z,14.40
2022-11-09T15:57:18.672Z,14.40
2022-11-09T16:00:11.342Z,14.40
2022-11-09T16:03:01.161Z,14.40
2022-11-09T16:05:48.703Z,14.40
2022-11-09T16:08:35.308Z,14.30
2022-11-09T16:11:22.106Z,14.30
2022-11-09T16:14:10.461Z,14.30
2022-11-09T16:19:44.359Z,14.20
2022-11-09T16:22:32.824Z,14.10
2022-11-09T16:25:20.378Z,13.90
2022-11-09T16:30:55.847Z,14.00
2022-11-09T16:36:31.201Z,14.00
2022-11-09T16:39:18.575Z,13.90
2022-11-09T16:42:10.145Z,13.90
2022-11-09T16:45:01.429Z,13.90
2022-11-09T16:47:53.799Z,13.90
2022-11-09T16:50:40.833Z,13.90
2022-11-09T16:56:14.863Z,13.80
2022-11-09T17:01:53.486Z,13.80
2022-11-09T17:04:42.252Z,13.80
2022-11-09T17:10:17.216Z,13.80
2022-11-09T17:15:53.338Z,13.70
2022-11-09T17:21:30.349Z,13.70
2022-11-09T17:24:17.840Z,13.70
2022-11-09T17:29:52.708Z,13.60
2022-11-09T17:38:16.707Z,13.50
2022-11-09T17:41:05.126Z,13.50
2022-11-09T17:43:51.944Z,13.50
2022-11-09T17:46:39.029Z,13.50
2022-11-09T17:52:13.030Z,13.40
2022-11-09T17:55:01.654Z,13.40
2022-11-09T17:57:48.642Z,13.40
2022-11-09T18:00:35.436Z,13.40
2022-11-09T18:06:13.217Z,13.30
2022-11-09T18:12:09.182Z,13.30
2022-11-09T18:14:56.119Z,13.30
2022-11-09T18:20:30.802Z,13.20
2022-11-09T18:26:06.229Z,13.20
2022-11-09T18:28:56.404Z,13.10
2022-11-09T18:42:52.033Z,13.00
2022-11-09T18:45:40.299Z,13.00
2022-11-09T18:48:27.986Z,12.90
2022-11-09T18:54:01.944Z,13.00
2022-11-09T18:59:39.978Z,13.00
2022-11-09T19:02:28.419Z,13.00
2022-11-09T19:08:02.447Z,12.90
2022-11-09T19:10:49.524Z,13.00
2022-11-09T19:16:25.237Z,13.00
2022-11-09T19:19:15.880Z,12.90
2022-11-09T19:22:02.793Z,12.90
2022-11-09T19:36:28.510Z,12.80
2022-11-09T19:47:30.075Z,12.70
2022-11-09T19:50:17.476Z,12.70
2022-11-09T19:53:05.327Z,12.70
2022-11-09T20:01:27.373Z,12.60
2022-11-09T20:04:14.151Z,12.60
2022-11-09T20:07:01.431Z,12.60
2022-11-09T20:09:49.753Z,12.60
2022-11-09T20:12:51.900Z,12.60
2022-11-09T20:26:48.356Z,12.50
2022-11-09T20:32:23.772Z,12.40
2022-11-09T20:35:10.898Z,12.40
2022-11-09T20:43:33.587Z,12.30
2022-11-09T20:46:24.459Z,12.30
2022-11-09T20:51:59.411Z,12.30
2022-11-09T20:54:46.136Z,12.20
2022-11-09T20:57:33.155Z,12.20
2022-11-09T21:00:24.516Z,12.20
2022-11-09T21:05:59.396Z,12.10
2022-11-09T21:14:44.465Z,12.00
2022-11-09T21:17:33.093Z,12.00
2022-11-09T21:20:20.048Z,11.90
2022-11-09T21:29:37.537Z,11.80
2022-11-09T21:32:25.093Z,11.80
2022-11-09T21:35:13.162Z,11.80
2022-11-09T21:49:10.207Z,11.60
2022-11-09T21:51:58.820Z,11.50
2022-11-09T22:00:20.348Z,11.30
2022-11-09T22:05:54.089Z,11.20
2022-11-09T22:08:42.701Z,11.20
2022-11-09T22:14:47.817Z,11.10
2022-11-09T22:17:34.708Z,11.00
2022-11-09T22:20:39.363Z,10.90
2022-11-09T22:26:14.862Z,10.80
2022-11-09T22:34:36.095Z,10.60
2022-11-09T22:40:11.305Z,10.60
2022-11-09T22:42:59.393Z,10.50
2022-11-09T22:45:46.416Z,10.50
2022-11-09T22:48:33.578Z,10.50
2022-11-09T22:51:20.943Z,10.50
2022-11-09T22:59:43.654Z,10.60
2022-11-09T23:02:30.793Z,10.60
2022-11-09T23:10:55.917Z,10.60
2022-11-09T23:13:43.475Z,10.60
2022-11-09T23:16:31.612Z,10.50
2022-11-09T23:27:56.804Z,10.50
2022-11-09T23:33:32.267Z,10.50
2022-11-09T23:36:19.678Z,10.40
2022-11-09T23:44:40.573Z,10.30
2022-11-09T23:50:15.939Z,10.30
